createdAt,value
2022-12-31T00:00:27.058Z,988.71
2022-12-31T00:06:18.120Z,988.82
2022-12-31T00:12:02.058Z,988.74
2022-12-31T00:17:44.879Z,988.74
2022-12-31T00:23:27.996Z,988.81
2022-12-31T00:29:11.274Z,989
2022-12-31T00:34:54.379Z,988.55
2022-12-31T00:40:37.269Z,988.58
2022-12-31T00:46:20.679Z,988.63
2022-12-31T00:52:03.816Z,988.78
2022-12-31T00:57:46.670Z,988.75
2022-12-31T01:03:29.441Z,988.8
2022-12-31T01:09:13.020Z,988.85
2022-12-31T01:14:56.073Z,988.8
2022-12-31T01:20:41.052Z,988.83
2022-12-31T01:26:23.802Z,989.08
2022-12-31T01:32:07.857Z,988.97
2022-12-31T01:37:50.675Z,989.16
2022-12-31T01:43:48.116Z,989.32
2022-12-31T01:49:35.876Z,989.51
2022-12-31T01:55:21.965Z,989.64
2022-12-31T02:01:08.030Z,989.7
2022-12-31T02:06:54.078Z,989.83
2022-12-31T02:12:36.883Z,989.85
2022-12-31T02:18:23.561Z,989.85
2022-12-31T02:24:20.163Z,989.76
2022-12-31T02:30:13.567Z,989.72
2022-12-31T02:35:58.263Z,989.71
2022-12-31T02:41:41.055Z,989.7
2022-12-31T02:47:33.455Z,989.71
2022-12-31T02:53:21.899Z,989.67
2022-12-31T02:59:08.875Z,989.55
2022-12-31T03:04:52.794Z,989.58
2022-12-31T03:10:35.929Z,989.63
2022-12-31T03:16:19.835Z,989.78
2022-12-31T03:22:02.884Z,990.06
2022-12-31T03:27:46.287Z,990.07
2022-12-31T03:33:31.153Z,990.03
2022-12-31T03:39:14.071Z,990.1
2022-12-31T03:44:56.976Z,990.03
2022-12-31T03:50:39.995Z,989.92
2022-12-31T03:56:23.914Z,990.02
2022-12-31T04:02:07.527Z,989.97
2022-12-31T04:07:50.773Z,990.04
2022-12-31T04:13:34.777Z,990.16
2022-12-31T04:19:17.704Z,990.25
2022-12-31T04:25:00.534Z,990.22
2022-12-31T04:30:43.833Z,989.97
2022-12-31T04:36:26.521Z,990.14
2022-12-31T04:42:11.368Z,990.22
2022-12-31T04:47:54.337Z,990.32
2022-12-31T04:53:38.447Z,990.31
2022-12-31T04:59:21.227Z,990.26
2022-12-31T05:05:04.123Z,990.48
2022-12-31T05:10:47.726Z,990.66
2022-12-31T05:16:30.602Z,990.87
2022-12-31T05:22:13.640Z,990.88
2022-12-31T05:27:57.463Z,990.97
2022-12-31T05:33:40.273Z,990.95
2022-12-31T05:39:22.881Z,990.72
2022-12-31T05:45:06.541Z,990.83
2022-12-31T05:50:49.642Z,990.75
2022-12-31T05:56:32.288Z,990.85
2022-12-31T06:02:15.273Z,990.88
2022-12-31T06:07:58.274Z,991.02
2022-12-31T06:13:41.994Z,990.97
2022-12-31T06:19:25.106Z,990.96
2022-12-31T06:25:09.038Z,990.77
2022-12-31T06:30:52.025Z,991.03
2022-12-31T06:36:35.014Z,990.98
2022-12-31T06:42:17.946Z,991.31
2022-12-31T06:48:01.747Z,991.34
2022-12-31T06:53:45.182Z,991.24
2022-12-31T06:59:29.950Z,990.99
2022-12-31T07:05:14.575Z,991.3
2022-12-31T07:11:02.225Z,991.51
2022-12-31T07:16:54.479Z,991.69
2022-12-31T07:22:37.906Z,991.6
2022-12-31T07:28:25.813Z,991.42
2022-12-31T07:34:11.155Z,991.62
2022-12-31T07:40:00.762Z,991.59
2022-12-31T07:45:48.523Z,991.69
2022-12-31T07:51:33.065Z,991.99
2022-12-31T07:57:17.462Z,991.98
2022-12-31T08:03:11.348Z,991.8
2022-12-31T08:08:59.305Z,991.81
2022-12-31T08:14:44.159Z,991.75
2022-12-31T08:20:27.690Z,991.98
2022-12-31T08:26:16.515Z,991.99
2022-12-31T08:32:04.203Z,992
2022-12-31T08:37:50.835Z,992.27
2022-12-31T08:43:48.569Z,992.27
2022-12-31T08:49:32.916Z,992.38
2022-12-31T08:55:20.007Z,992.5
2022-12-31T09:01:06.073Z,992.64
2022-12-31T09:06:55.253Z,992.57
2022-12-31T09:12:42.258Z,992.72
2022-12-31T09:18:34.275Z,992.81
2022-12-31T09:24:18.630Z,992.81
2022-12-31T09:30:02.837Z,992.78
2022-12-31T09:35:49.738Z,992.55
2022-12-31T09:41:40.366Z,992.82
2022-12-31T09:47:34.550Z,993.05
2022-12-31T09:53:28.549Z,992.66
2022-12-31T09:59:20.325Z,992.98
2022-12-31T10:05:13.367Z,992.99
2022-12-31T10:10:58.743Z,993.03
2022-12-31T10:16:48.412Z,993.05
2022-12-31T10:22:50.620Z,993.21
2022-12-31T10:28:39.663Z,993.23
2022-12-31T10:34:26.605Z,993.34
2022-12-31T10:40:16.387Z,993.48
2022-12-31T10:46:11.775Z,993.41
2022-12-31T10:52:18.388Z,993.5
2022-12-31T10:58:15.767Z,993.43
2022-12-31T11:04:08.314Z,993.49
2022-12-31T11:10:06.326Z,993.62
2022-12-31T11:15:57.211Z,993.63
2022-12-31T11:21:47.450Z,993.57
2022-12-31T11:27:35.881Z,993.6
2022-12-31T11:33:25.067Z,993.47
2022-12-31T11:39:18.254Z,993.43
2022-12-31T11:45:05.593Z,993.52
2022-12-31T11:50:52.007Z,993.65
2022-12-31T11:56:37.948Z,993.63
2022-12-31T12:02:25.824Z,993.54
2022-12-31T12:08:09.153Z,993.64
2022-12-31T12:13:52.703Z,993.46
2022-12-31T12:19:36.867Z,993.56
2022-12-31T12:25:22.072Z,993.59
2022-12-31T12:31:05.736Z,993.59
2022-12-31T12:36:50.301Z,993.51
2022-12-31T12:42:33.417Z,993.45
2022-12-31T12:48:19.719Z,993.33
2022-12-31T12:54:06.947Z,993.22
2022-12-31T12:59:58.230Z,993.23
2022-12-31T13:05:48.084Z,993.04
2022-12-31T13:11:37.465Z,992.92
2022-12-31T13:17:31.521Z,992.94
2022-12-31T13:23:17.251Z,992.92
2022-12-31T13:29:02.458Z,992.86
2022-12-31T13:34:46.619Z,992.84
2022-12-31T13:40:32.446Z,992.61
2022-12-31T13:46:19.307Z,993.01
2022-12-31T13:52:06.098Z,992.89
2022-12-31T13:57:51.337Z,992.77
2022-12-31T14:03:38.704Z,992.7
2022-12-31T14:09:23.474Z,992.82
2022-12-31T14:15:11.482Z,992.68
2022-12-31T14:20:59.190Z,992.72
2022-12-31T14:26:44.502Z,992.81
2022-12-31T14:32:45.038Z,992.85
2022-12-31T14:38:37.048Z,992.98
2022-12-31T14:44:35.853Z,992.86
2022-12-31T14:50:23.269Z,992.83
2022-12-31T14:56:13.926Z,992.82
2022-12-31T15:01:59.531Z,992.78
2022-12-31T15:07:49.017Z,993
2022-12-31T15:13:38.171Z,992.96
2022-12-31T15:19:32.857Z,992.94
2022-12-31T15:25:40.968Z,992.94
2022-12-31T15:31:25.584Z,992.9
2022-12-31T15:37:19.429Z,992.89
2022-12-31T15:43:05.149Z,992.78
2022-12-31T15:48:55.531Z,992.84
2022-12-31T15:54:52.000Z,992.79
2022-12-31T16:00:44.304Z,992.84
2022-12-31T16:06:29.082Z,992.63
2022-12-31T16:12:17.976Z,992.68
2022-12-31T16:18:05.713Z,992.79
2022-12-31T16:23:54.651Z,992.67
2022-12-31T16:29:42.222Z,992.56
2022-12-31T16:35:27.045Z,992.53
2022-12-31T16:41:16.404Z,992.58
2022-12-31T16:47:03.401Z,992.55
2022-12-31T16:52:47.548Z,992.62
2022-12-31T16:58:31.809Z,992.72
2022-12-31T17:04:17.364Z,992.7
2022-12-31T17:10:14.216Z,992.48
2022-12-31T17:15:57.406Z,992.73
2022-12-31T17:21:46.744Z,992.54
2022-12-31T17:27:30.642Z,992.29
2022-12-31T17:33:24.664Z,992.44
2022-12-31T17:39:22.046Z,992.15
2022-12-31T17:45:06.809Z,992.44
2022-12-31T17:50:51.619Z,992.34
2022-12-31T17:56:34.672Z,992.34
2022-12-31T18:02:18.115Z,992.57
2022-12-31T18:08:01.299Z,992.43
2022-12-31T18:13:44.750Z,992.49
2022-12-31T18:20:03.362Z,992.77
2022-12-31T18:25:30.877Z,992.6
2022-12-31T18:31:17.595Z,992.5
2022-12-31T18:37:01.014Z,993.01
2022-12-31T18:42:44.870Z,992.75
2022-12-31T18:48:27.926Z,993
2022-12-31T18:54:11.552Z,992.98
2022-12-31T18:59:55.310Z,993.18
2022-12-31T19:05:38.320Z,992.87
2022-12-31T19:11:21.581Z,993.19
2022-12-31T19:22:43.637Z,993.33
2022-12-31T19:28:27.423Z,993.22
2022-12-31T19:34:10.238Z,993.3
2022-12-31T19:39:53.017Z,993.56
2022-12-31T19:45:35.830Z,993.4
2022-12-31T19:51:20.246Z,993.59
2022-12-31T19:57:03.119Z,993.59
2022-12-31T20:02:47.272Z,993.64
2022-12-31T20:08:30.724Z,993.67
2022-12-31T20:14:13.457Z,993.64
2022-12-31T20:19:56.392Z,993.75
2022-12-31T20:25:39.178Z,993.63
2022-12-31T20:31:24.097Z,993.65
2022-12-31T20:37:07.099Z,993.77
2022-12-31T20:42:49.887Z,993.8
2022-12-31T20:48:32.754Z,993.82
2022-12-31T20:54:15.520Z,993.81
2022-12-31T20:59:58.593Z,994.07
2022-12-31T21:05:46.630Z,993.66
2022-12-31T21:11:30.192Z,993.81
2022-12-31T21:17:13.169Z,993.68
2022-12-31T21:22:56.036Z,993.78
2022-12-31T21:28:38.814Z,993.9
2022-12-31T21:34:21.604Z,993.91
2022-12-31T21:40:04.753Z,993.97
2022-12-31T21:45:47.686Z,994.03
2022-12-31T21:58:26.738Z,994.06
2022-12-31T22:04:35.621Z,994.13
2022-12-31T22:10:12.565Z,994.29
2022-12-31T22:16:05.480Z,994.16
2022-12-31T22:21:48.991Z,994.18
2022-12-31T22:27:31.898Z,994.21
2022-12-31T22:33:14.715Z,994.41
2022-12-31T22:38:58.940Z,994.4
2022-12-31T22:44:41.779Z,994.37
2022-12-31T22:50:24.566Z,994.48
2022-12-31T22:56:08.112Z,994.6
2022-12-31T23:01:50.977Z,994.37
2022-12-31T23:07:33.816Z,994.58
2022-12-31T23:13:16.674Z,994.81
2022-12-31T23:19:05.615Z,994.84
2022-12-31T23:24:48.823Z,994.95
2022-12-31T23:30:31.773Z,994.71
2022-12-31T23:36:14.787Z,994.67
2022-12-31T23:41:58.320Z,994.83
2022-12-31T23:47:41.237Z,994.92
2022-12-31T23:53:24.266Z,994.88
2022-12-31T23:59:07.081Z,994.73
